Time;durP1;ratioP1;P1;durP2;ratioP2;P2;SDS_P1;SDS_P2;PMS_P1;PMS_P2;Temp;Humidity;BMP_temperature;BMP_pressure;BME280_temperature;BME280_humidity;BME280_pressure;Samples;Min_cycle;Max_cycle;Signal;HPM_P1;HPM_P2
2023/06/21 00:02:23;;;;;;;15.75;9.45;;;;;;;20.62;61.20;95469.41;5133569;27;20080;-80
2023/06/21 00:04:49;;;;;;;11.90;9.27;;;;;;;20.50;61.10;95460.47;5133973;27;20378;-80
2023/06/21 00:07:14;;;;;;;16.95;8.32;;;;;;;20.58;61.17;95473.09;5133451;27;20034;-80
2023/06/21 00:09:40;;;;;;;10.90;8.27;;;;;;;20.33;61.51;95445.19;5126198;27;20295;-80
2023/06/21 00:12:06;;;;;;;9.43;8.05;;;;;;;20.32;61.64;95452.47;5131492;27;20421;-80
2023/06/21 00:14:31;;;;;;;19.02;9.05;;;;;;;20.35;61.61;95459.94;5133123;27;20493;-80
2023/06/21 00:16:56;;;;;;;14.75;9.18;;;;;;;20.21;61.84;95437.84;5117224;27;20078;-80
2023/06/21 00:19:22;;;;;;;13.45;9.63;;;;;;;20.26;62.07;95453.00;5114421;27;20031;-80
2023/06/21 00:21:47;;;;;;;13.25;8.60;;;;;;;20.28;61.99;95458.88;5114644;27;20477;-80
2023/06/21 00:24:13;;;;;;;16.40;10.05;;;;;;;20.29;62.50;95473.91;5132678;27;20083;-80
2023/06/21 00:26:38;;;;;;;17.27;10.38;;;;;;;20.14;62.40;95445.63;5114910;27;20045;-80
2023/06/21 00:29:04;;;;;;;11.93;9.15;;;;;;;20.43;62.12;95490.63;5132468;27;20034;-80
2023/06/21 00:31:30;;;;;;;14.25;9.77;;;;;;;20.39;62.19;95479.72;5148644;27;20023;-80
2023/06/21 00:33:56;;;;;;;15.57;10.25;;;;;;;20.40;62.40;95480.50;5133273;27;20554;-80
2023/06/21 00:36:21;;;;;;;20.15;10.40;;;;;;;20.21;62.66;95462.09;5153079;27;20118;-82
2023/06/21 00:38:47;;;;;;;21.52;10.65;;;;;;;20.26;62.80;95469.16;5134818;27;20113;-80
2023/06/21 00:41:12;;;;;;;17.65;10.43;;;;;;;19.95;63.29;95434.53;5123764;27;20118;-79
2023/06/21 00:43:38;;;;;;;16.30;10.65;;;;;;;20.17;63.43;95468.44;5124892;27;20053;-79
2023/06/21 00:46:04;;;;;;;15.32;9.80;;;;;;;20.15;63.56;95470.66;5134110;27;20133;-79
2023/06/21 00:48:29;;;;;;;22.33;10.50;;;;;;;20.14;63.75;95477.94;5153213;27;20023;-79
2023/06/21 00:50:56;;;;;;;19.63;10.85;;;;;;;19.94;63.92;95455.28;5133844;27;20037;-79
2023/06/21 00:53:26;;;;;;;20.27;9.88;;;;;;;19.77;63.82;95436.53;5133860;27;20099;-80
2023/06/21 00:55:52;;;;;;;17.63;11.40;;;;;;;19.61;64.35;95433.59;5133874;27;20034;-79
2023/06/21 00:58:20;;;;;;;17.45;11.45;;;;;;;19.78;64.15;95451.56;5153026;27;20035;-79
2023/06/21 01:00:47;;;;;;;23.35;12.10;;;;;;;19.28;63.86;95382.31;5134573;27;20083;-79
2023/06/21 01:03:13;;;;;;;22.42;11.40;;;;;;;19.81;64.20;95447.44;5154056;27;20453;-79
2023/06/21 01:05:39;;;;;;;19.15;11.45;;;;;;;19.77;64.26;95447.28;5138076;27;20050;-79
2023/06/21 01:08:35;;;;;;;23.25;11.50;;;;;;;19.76;64.30;95453.78;5138280;27;20512;-79
2023/06/21 01:11:19;;;;;;;17.73;10.40;;;;;;;19.91;64.44;95474.75;5138622;27;20039;-79
2023/06/21 01:14:16;;;;;;;18.08;10.88;;;;;;;19.84;64.72;95476.38;5138558;27;20091;-79
2023/06/21 01:16:45;;;;;;;17.50;10.98;;;;;;;19.82;64.69;95481.31;5157343;27;20030;-79
2023/06/21 01:19:28;;;;;;;17.92;11.63;;;;;;;19.55;64.96;95439.47;5151784;27;20216;-79
2023/06/21 01:21:57;;;;;;;18.45;12.18;;;;;;;19.54;65.08;95437.91;5150600;27;20459;-79
2023/06/21 01:24:45;;;;;;;18.20;11.18;;;;;;;19.67;65.25;95471.88;5131695;27;20095;-79
2023/06/21 01:27:29;;;;;;;15.65;10.77;;;;;;;19.66;65.41;95467.63;5116369;27;21067;-79
2023/06/21 01:29:59;;;;;;;16.33;11.75;;;;;;;19.43;65.54;95436.66;5117286;27;20069;-79
2023/06/21 01:32:28;;;;;;;19.63;10.55;;;;;;;19.43;65.81;95448.22;5119239;27;20027;-79
2023/06/21 01:34:55;;;;;;;14.75;10.95;;;;;;;19.44;65.65;95447.13;5117358;27;20049;-79
2023/06/21 01:37:21;;;;;;;15.65;10.57;;;;;;;19.48;65.66;95460.72;5135666;27;20039;-79
2023/06/21 01:39:47;;;;;;;20.20;11.73;;;;;;;19.50;65.82;95470.06;5117411;27;20034;-79
2023/06/21 01:42:12;;;;;;;24.67;11.60;;;;;;;19.33;65.69;95447.78;5116936;27;20027;-79
2023/06/21 01:44:38;;;;;;;17.85;11.55;;;;;;;19.44;65.83;95468.63;5117366;27;20027;-79
2023/06/21 01:47:06;;;;;;;22.20;11.43;;;;;;;19.54;65.77;95483.63;5116991;27;20030;-77
2023/06/21 01:49:33;;;;;;;15.80;11.07;;;;;;;19.51;65.73;95474.31;5137900;27;20564;-76
2023/06/21 01:52:00;;;;;;;16.58;10.93;;;;;;;19.60;65.65;95493.91;5118802;27;20042;-79
2023/06/21 01:54:26;;;;;;;21.67;12.45;;;;;;;19.39;65.56;95468.00;5135876;27;20557;-79
2023/06/21 01:56:59;;;;;;;23.35;11.23;;;;;;;19.47;64.99;95476.06;5117155;27;20186;-79
2023/06/21 01:59:25;;;;;;;26.83;11.85;;;;;;;19.42;64.96;95476.22;5117406;27;20035;-79
2023/06/21 02:01:52;;;;;;;18.02;11.75;;;;;;;19.38;65.31;95463.72;5135705;27;20114;-80
2023/06/21 02:04:17;;;;;;;18.17;10.23;;;;;;;19.33;65.50;95445.88;5135690;27;20415;-80
2023/06/21 02:06:43;;;;;;;20.92;11.45;;;;;;;19.51;65.46;95476.22;5117246;27;20064;-80
2023/06/21 02:09:09;;;;;;;18.38;10.65;;;;;;;19.46;65.47;95470.97;5117231;27;20055;-80
2023/06/21 02:11:36;;;;;;;21.92;11.75;;;;;;;19.38;65.23;95455.66;5116512;27;20035;-80
2023/06/21 02:14:02;;;;;;;23.60;11.55;;;;;;;19.42;65.53;95475.44;5116847;27;20516;-80
2023/06/21 02:16:29;;;;;;;16.02;10.10;;;;;;;19.31;65.53;95463.44;5135771;27;20034;-79
2023/06/21 02:18:55;;;;;;;17.08;10.70;;;;;;;19.39;65.78;95481.44;5117246;27;20061;-80
2023/06/21 02:21:21;;;;;;;20.60;11.63;;;;;;;19.08;65.87;95444.03;5116942;27;20047;-80
2023/06/21 02:23:46;;;;;;;18.40;10.52;;;;;;;19.04;66.49;95443.13;5116867;27;20192;-80
2023/06/21 02:26:12;;;;;;;14.80;10.90;;;;;;;19.16;66.05;95460.16;5117074;27;20031;-80
2023/06/21 02:28:37;;;;;;;17.05;10.43;;;;;;;19.06;66.48;95470.47;5116573;27;20098;-79
2023/06/21 02:31:03;;;;;;;16.55;11.40;;;;;;;19.03;66.66;95488.03;5113446;27;20072;-80
2023/06/21 02:33:31;;;;;;;17.80;10.77;;;;;;;19.09;66.82;95502.06;5121409;27;20132;-80
2023/06/21 02:35:57;;;;;;;22.45;10.73;;;;;;;19.09;66.81;95502.88;5116962;27;20031;-80
2023/06/21 02:38:25;;;;;;;19.70;11.60;;;;;;;18.86;66.83;95475.41;5116771;27;20180;-80
2023/06/21 02:40:51;;;;;;;14.32;10.45;;;;;;;19.03;66.99;95506.03;5117148;27;20031;-80
2023/06/21 02:43:16;;;;;;;18.48;11.77;;;;;;;19.02;67.21;95509.84;5116394;27;20023;-80
2023/06/21 02:45:42;;;;;;;22.50;11.93;;;;;;;19.01;67.33;95522.47;5135123;27;20026;-80
2023/06/21 02:48:07;;;;;;;20.10;10.90;;;;;;;18.20;67.24;95398.00;5117205;27;20042;-80
2023/06/21 02:50:32;;;;;;;14.93;11.30;;;;;;;18.91;67.27;95520.16;5116960;27;20027;-80
2023/06/21 02:52:58;;;;;;;20.77;11.35;;;;;;;18.82;67.65;95522.03;5116324;27;20114;-79
2023/06/21 02:55:23;;;;;;;16.73;11.52;;;;;;;18.80;68.02;95503.53;5134731;27;20038;-80
2023/06/21 02:57:49;;;;;;;15.27;11.32;;;;;;;18.78;67.75;95513.81;5116520;27;20028;-80
2023/06/21 03:00:33;;;;;;;17.55;11.70;;;;;;;18.75;67.60;95505.59;5135152;27;20140;-80
2023/06/21 03:02:59;;;;;;;16.92;11.10;;;;;;;18.89;67.56;95525.03;5114799;27;20109;-80
2023/06/21 03:05:26;;;;;;;21.55;11.60;;;;;;;18.62;67.60;95488.53;5105371;28;20126;-80
2023/06/21 03:07:51;;;;;;;15.93;10.27;;;;;;;18.77;67.51;95504.16;5130862;27;20445;-80
2023/06/21 03:10:18;;;;;;;20.75;11.80;;;;;;;18.87;67.84;95519.97;5115859;27;20039;-79
2023/06/21 03:12:44;;;;;;;21.58;11.45;;;;;;;18.74;67.64;95504.03;5134249;27;20035;-79
2023/06/21 03:15:10;;;;;;;13.85;10.68;;;;;;;18.81;67.61;95523.94;5115260;27;20073;-79
2023/06/21 03:17:37;;;;;;;17.30;11.15;;;;;;;18.85;67.65;95516.00;5105602;28;20083;-79
2023/06/21 03:20:08;;;;;;;21.23;11.32;;;;;;;18.86;67.82;95529.13;5129595;27;20035;-79
2023/06/21 03:22:34;;;;;;;16.85;11.30;;;;;;;18.68;67.63;95483.81;5133981;27;20023;-80
2023/06/21 03:24:59;;;;;;;22.75;12.20;;;;;;;19.06;67.77;95543.06;5114179;27;20149;-79
2023/06/21 03:27:25;;;;;;;18.80;11.88;;;;;;;19.06;67.46;95546.53;5125751;27;20176;-79
2023/06/21 03:29:50;;;;;;;23.77;12.55;;;;;;;18.97;67.33;95521.56;5115635;27;20042;-80
2023/06/21 03:32:15;;;;;;;21.65;12.80;;;;;;;19.18;67.48;95551.25;5133828;27;20039;-79
2023/06/21 03:34:41;;;;;;;23.88;12.52;;;;;;;19.07;67.53;95523.91;5115329;27;20493;-80
2023/06/21 03:37:06;;;;;;;35.63;13.40;;;;;;;19.00;67.07;95501.28;5115480;27;20039;-79
2023/06/21 03:39:32;;;;;;;20.20;12.45;;;;;;;19.15;67.60;95533.84;5114714;27;20035;-79
2023/06/21 03:41:57;;;;;;;21.27;12.52;;;;;;;18.55;67.63;95444.41;5133342;27;20027;-79
2023/06/21 03:44:22;;;;;;;16.75;10.80;;;;;;;19.16;67.77;95542.69;5133660;27;20061;-79
2023/06/21 03:46:48;;;;;;;20.30;12.43;;;;;;;19.06;67.84;95530.41;5114969;27;20046;-81
2023/06/21 03:49:13;;;;;;;17.65;12.02;;;;;;;19.11;67.69;95532.91;5114814;27;20035;-80
2023/06/21 03:51:39;;;;;;;22.45;12.45;;;;;;;19.14;67.42;95528.81;5114583;27;20501;-80
2023/06/21 03:54:05;;;;;;;22.52;13.38;;;;;;;19.19;67.49;95534.00;5094835;27;20028;-79
2023/06/21 03:56:30;;;;;;;21.52;12.73;;;;;;;18.99;67.26;95494.38;5144369;27;20035;-79
2023/06/21 03:58:56;;;;;;;25.08;13.45;;;;;;;19.30;66.91;95532.56;5111824;27;20035;-80
2023/06/21 04:01:22;;;;;;;26.63;14.07;;;;;;;18.96;67.09;95493.09;5112041;27;20035;-80
2023/06/21 04:03:48;;;;;;;21.55;13.43;;;;;;;19.44;66.91;95551.22;5129338;27;20050;-80
2023/06/21 04:06:13;;;;;;;28.27;14.63;;;;;;;19.23;66.13;95514.22;5107169;27;20442;-80
2023/06/21 04:08:39;;;;;;;31.63;14.48;;;;;;;19.35;65.96;95537.78;5097578;28;20043;-79
2023/06/21 04:11:04;;;;;;;34.47;15.00;;;;;;;19.35;66.08;95553.13;5096643;28;20078;-79
2023/06/21 04:13:30;;;;;;;26.20;13.85;;;;;;;19.41;65.85;95554.53;5099885;28;20130;-80
2023/06/21 04:15:56;;;;;;;23.50;13.85;;;;;;;19.33;65.77;95541.88;5097346;28;20048;-79
2023/06/21 04:18:22;;;;;;;25.00;13.60;;;;;;;19.64;65.37;95567.47;5096462;28;20032;-79
2023/06/21 04:20:49;;;;;;;25.80;13.00;;;;;;;19.59;65.54;95566.88;5114509;27;20479;-80
2023/06/21 04:23:17;;;;;;;31.50;12.95;;;;;;;19.37;65.32;95542.84;5107208;27;20040;-79
2023/06/21 04:25:43;;;;;;;24.73;15.05;;;;;;;19.42;65.12;95554.22;5089350;28;20033;-83
2023/06/21 04:28:10;;;;;;;20.75;14.15;;;;;;;19.33;64.75;95515.78;5094302;28;20030;-83
2023/06/21 04:30:35;;;;;;;16.15;12.43;;;;;;;19.47;64.37;95518.31;5085002;28;20195;-83
2023/06/21 04:33:01;;;;;;;22.70;13.02;;;;;;;19.84;63.75;95574.06;5081380;27;20175;-82
2023/06/21 04:35:27;;;;;;;26.10;12.70;;;;;;;19.82;63.61;95549.38;5097249;27;20109;-80
2023/06/21 04:37:53;;;;;;;18.30;12.25;;;;;;;19.76;63.69;95569.50;5085188;28;20464;-80
2023/06/21 04:40:21;;;;;;;22.10;12.77;;;;;;;19.81;63.08;95550.50;5089370;27;20039;-80
2023/06/21 04:42:47;;;;;;;25.85;13.05;;;;;;;19.61;63.91;95535.81;5100734;27;20067;-80
2023/06/21 04:45:14;;;;;;;20.83;11.35;;;;;;;19.92;63.30;95565.16;5105376;27;20486;-81
2023/06/21 04:47:46;;;;;;;20.95;12.57;;;;;;;20.06;62.98;95573.03;5099324;28;20039;-80
2023/06/21 04:50:12;;;;;;;20.27;11.82;;;;;;;19.78;63.24;95550.34;5098043;27;20035;-80
2023/06/21 04:52:37;;;;;;;25.70;13.23;;;;;;;19.74;63.07;95533.28;5082601;28;20031;-81
2023/06/21 04:55:07;;;;;;;22.52;12.20;;;;;;;20.07;62.85;95561.13;5094372;28;20032;-80
2023/06/21 04:57:34;;;;;;;25.60;13.38;;;;;;;20.12;62.55;95552.88;5097755;28;20458;-80
2023/06/21 05:00:06;;;;;;;20.52;14.20;;;;;;;20.11;62.21;95554.00;5100218;28;20596;-81
2023/06/21 05:02:31;;;;;;;20.38;14.40;;;;;;;20.32;62.19;95567.50;5084740;28;20403;-80
2023/06/21 05:04:57;;;;;;;16.35;12.88;;;;;;;20.25;62.42;95551.06;5091455;28;20108;-80
2023/06/21 05:07:22;;;;;;;18.75;15.00;;;;;;;20.10;62.29;95540.84;5089927;28;20040;-81
2023/06/21 05:09:48;;;;;;;26.23;14.88;;;;;;;20.20;62.36;95552.06;5082598;28;20054;-81
2023/06/21 05:12:13;;;;;;;20.17;15.02;;;;;;;20.02;63.12;95551.34;5069411;28;20031;-80
2023/06/21 05:14:38;;;;;;;21.60;15.70;;;;;;;20.31;62.89;95571.31;5091679;28;20029;-81
2023/06/21 05:17:04;;;;;;;36.28;18.15;;;;;;;19.98;62.76;95531.59;5099338;28;20106;-81
2023/06/21 05:19:30;;;;;;;25.20;15.50;;;;;;;20.28;62.46;95553.91;5092736;28;20441;-81
2023/06/21 05:21:55;;;;;;;20.33;16.05;;;;;;;20.26;62.02;95529.22;5084205;28;20286;-81
2023/06/21 05:24:20;;;;;;;33.53;17.73;;;;;;;20.03;62.00;95488.31;5085057;28;20071;-81
2023/06/21 05:26:46;;;;;;;28.92;16.00;;;;;;;20.59;62.13;95567.06;5075774;28;20509;-81
2023/06/21 05:29:12;;;;;;;25.27;16.48;;;;;;;20.54;62.06;95561.84;5102645;28;20039;-81
2023/06/21 05:31:42;;;;;;;25.75;17.00;;;;;;;20.69;61.95;95573.97;5087303;28;20043;-81
2023/06/21 05:34:08;;;;;;;27.13;17.33;;;;;;;20.57;61.70;95544.25;5099403;28;20039;-80
2023/06/21 05:36:33;;;;;;;26.05;16.70;;;;;;;20.76;61.63;95566.94;5094149;28;20038;-80
2023/06/21 05:39:00;;;;;;;28.42;16.27;;;;;;;20.34;61.58;95519.53;5075886;28;20470;-80
2023/06/21 05:41:25;;;;;;;26.13;16.85;;;;;;;20.63;61.34;95562.59;5085245;28;21646;-81
2023/06/21 05:43:51;;;;;;;29.27;16.60;;;;;;;20.66;61.73;95563.84;5083475;28;20031;-81
2023/06/21 05:46:17;;;;;;;23.33;16.75;;;;;;;20.65;61.48;95554.19;5077882;28;20074;-81
2023/06/21 05:48:43;;;;;;;25.23;15.82;;;;;;;20.48;61.15;95516.56;5075272;28;20044;-81
2023/06/21 05:51:08;;;;;;;26.38;15.80;;;;;;;20.55;61.51;95546.47;5077245;27;20032;-80
2023/06/21 05:53:34;;;;;;;25.52;15.65;;;;;;;20.63;61.02;95534.84;5094533;27;20027;-81
2023/06/21 05:55:59;;;;;;;34.92;16.63;;;;;;;20.70;62.03;95559.38;5068842;27;20046;-81
2023/06/21 05:58:25;;;;;;;27.90;15.50;;;;;;;20.77;62.08;95559.63;5094929;28;20461;-81
2023/06/21 06:00:51;;;;;;;29.48;17.05;;;;;;;20.22;61.75;95446.69;5089452;27;20080;-81
2023/06/21 06:03:16;;;;;;;21.73;15.43;;;;;;;20.52;61.18;95512.13;5085088;28;20494;-79
2023/06/21 06:05:43;;;;;;;27.23;14.82;;;;;;;20.85;60.94;95552.59;5080486;28;20126;-80
2023/06/21 06:08:09;;;;;;;28.73;16.42;;;;;;;20.97;60.74;95539.19;5086832;27;20151;-79
2023/06/21 06:10:34;;;;;;;22.85;14.95;;;;;;;21.15;60.70;95554.88;5101737;27;20030;-80
2023/06/21 06:13:00;;;;;;;32.08;14.40;;;;;;;21.03;60.69;95517.09;5086574;27;20027;-79
2023/06/21 06:15:25;;;;;;;31.33;16.08;;;;;;;21.14;60.85;95539.81;5117056;27;20031;-79
2023/06/21 06:17:51;;;;;;;26.23;16.27;;;;;;;21.10;61.02;95516.56;5104429;27;20026;-79
2023/06/21 06:20:16;;;;;;;25.58;14.43;;;;;;;21.00;61.13;95500.78;5116864;27;20406;-79
2023/06/21 06:22:41;;;;;;;25.58;15.38;;;;;;;21.02;61.25;95515.50;5100223;27;20554;-79
2023/06/21 06:25:07;;;;;;;29.13;15.38;;;;;;;20.98;61.33;95528.06;5096444;27;20031;-79
2023/06/21 06:27:33;;;;;;;36.25;16.83;;;;;;;21.10;61.10;95532.72;5102030;27;20225;-79
2023/06/21 06:29:58;;;;;;;26.40;16.48;;;;;;;20.91;61.07;95535.09;5094420;27;20717;-79
2023/06/21 06:32:26;;;;;;;21.70;15.32;;;;;;;21.08;61.28;95546.53;5119969;27;20047;-79
2023/06/21 06:34:52;;;;;;;29.75;14.85;;;;;;;21.27;60.62;95545.31;5098231;27;20034;-79
2023/06/21 06:37:17;;;;;;;27.30;16.02;;;;;;;21.11;60.28;95507.34;5099295;27;20369;-79
2023/06/21 06:39:43;;;;;;;25.55;15.35;;;;;;;21.46;59.84;95538.25;5111007;27;20469;-79
2023/06/21 06:42:10;;;;;;;26.65;14.82;;;;;;;21.33;59.41;95520.47;5119541;27;20023;-79
2023/06/21 06:44:35;;;;;;;21.02;15.05;;;;;;;20.65;59.30;95435.63;5096402;27;20059;-79
2023/06/21 06:47:01;;;;;;;28.55;14.88;;;;;;;21.33;59.65;95530.47;5103439;27;20812;-78
2023/06/21 06:49:26;;;;;;;21.10;14.25;;;;;;;21.35;59.56;95517.44;5111975;27;20032;-79
2023/06/21 06:51:51;;;;;;;20.83;13.48;;;;;;;21.47;59.76;95512.06;5100227;27;20028;-79
2023/06/21 06:54:17;;;;;;;20.48;14.63;;;;;;;21.52;59.74;95517.25;5074434;27;20045;-79
2023/06/21 06:56:43;;;;;;;25.38;14.88;;;;;;;21.58;60.04;95529.44;5086666;27;20335;-80
2023/06/21 06:59:08;;;;;;;26.33;15.70;;;;;;;21.58;60.40;95548.31;5116658;27;20599;-79
2023/06/21 07:01:34;;;;;;;22.20;14.63;;;;;;;21.49;60.07;95509.84;5092688;27;20063;-80
2023/06/21 07:04:00;;;;;;;26.73;16.35;;;;;;;21.77;59.95;95540.47;5103887;27;20024;-80
2023/06/21 07:06:25;;;;;;;39.80;16.95;;;;;;;21.70;59.92;95507.06;5098308;27;20031;-79
2023/06/21 07:08:51;;;;;;;31.38;17.27;;;;;;;21.86;60.12;95519.56;5102734;27;20173;-80
2023/06/21 07:11:16;;;;;;;26.65;16.13;;;;;;;21.78;59.94;95490.75;5088014;27;20028;-79
2023/06/21 07:13:43;;;;;;;27.58;17.00;;;;;;;21.94;59.63;95507.88;5078810;27;20059;-80
2023/06/21 07:16:08;;;;;;;31.20;17.55;;;;;;;22.22;59.02;95531.50;5091883;27;20032;-80
2023/06/21 07:18:34;;;;;;;28.73;16.75;;;;;;;22.17;58.58;95519.03;5115170;27;20837;-80
2023/06/21 07:20:59;;;;;;;27.80;18.13;;;;;;;22.19;58.67;95510.59;5095879;27;20077;-81
2023/06/21 07:23:27;;;;;;;34.80;16.38;;;;;;;22.19;58.40;95505.19;5104450;27;20086;-80
2023/06/21 07:25:53;;;;;;;25.17;16.25;;;;;;;22.26;58.38;95527.81;5082094;27;20047;-81
2023/06/21 07:28:18;;;;;;;31.55;17.30;;;;;;;22.23;58.48;95517.66;5106347;27;20036;-80
2023/06/21 07:30:43;;;;;;;31.23;16.75;;;;;;;21.85;58.88;95474.00;5102974;27;20031;-80
2023/06/21 07:33:09;;;;;;;32.58;16.92;;;;;;;21.96;58.03;95475.13;5113104;27;20361;-80
2023/06/21 07:35:35;;;;;;;23.55;15.52;;;;;;;22.19;58.05;95500.56;5102289;27;20578;-80
2023/06/21 07:38:00;;;;;;;30.38;16.15;;;;;;;22.29;57.89;95527.13;5121831;27;20095;-80
2023/06/21 07:40:26;;;;;;;22.75;15.13;;;;;;;22.35;57.97;95524.19;5108831;27;20743;-80
2023/06/21 07:42:51;;;;;;;24.40;14.82;;;;;;;22.18;57.38;95490.91;5103490;27;20030;-81
2023/06/21 07:45:17;;;;;;;26.77;15.57;;;;;;;22.34;57.08;95488.28;5119961;27;20107;-80
2023/06/21 07:47:42;;;;;;;19.73;14.05;;;;;;;22.22;56.73;95461.28;5117808;27;20067;-80
2023/06/21 07:50:08;;;;;;;21.58;13.55;;;;;;;22.69;55.77;95508.25;5102295;27;20037;-80
2023/06/21 07:52:33;;;;;;;24.35;14.65;;;;;;;22.59;56.48;95491.69;5088179;27;21022;-79
2023/06/21 07:54:59;;;;;;;20.27;14.85;;;;;;;22.55;56.38;95478.09;5088907;27;20042;-80
2023/06/21 07:57:24;;;;;;;25.25;15.00;;;;;;;22.89;56.22;95516.53;5090635;27;20019;-79
2023/06/21 07:59:49;;;;;;;28.10;13.82;;;;;;;22.68;56.12;95495.06;5086010;27;20154;-79
2023/06/21 08:02:17;;;;;;;30.30;15.40;;;;;;;22.59;56.49;95489.00;5105427;27;20460;-80
2023/06/21 08:04:46;;;;;;;25.45;15.07;;;;;;;22.65;56.96;95493.06;5092027;27;21295;-81
2023/06/21 08:07:13;;;;;;;19.25;13.63;;;;;;;22.64;57.50;95457.13;5093446;27;20039;-80
2023/06/21 08:09:38;;;;;;;26.45;15.27;;;;;;;22.56;58.17;95449.16;5085278;27;20174;-79
2023/06/21 08:12:04;;;;;;;24.83;16.10;;;;;;;23.00;57.12;95491.38;5096439;27;20577;-80
2023/06/21 08:14:30;;;;;;;27.40;15.45;;;;;;;22.94;57.31;95475.75;5089571;27;20445;-80
2023/06/21 08:16:55;;;;;;;28.50;16.05;;;;;;;22.97;56.67;95454.19;5094783;27;20087;-80
2023/06/21 08:19:20;;;;;;;21.33;14.98;;;;;;;23.27;56.38;95484.38;5109600;27;20655;-80
2023/06/21 08:21:46;;;;;;;36.15;15.43;;;;;;;23.34;56.60;95502.72;5098842;27;20030;-80
2023/06/21 08:24:11;;;;;;;31.80;15.35;;;;;;;23.20;55.60;95480.69;5118542;27;20035;-80
2023/06/21 08:26:37;;;;;;;25.15;14.88;;;;;;;23.15;55.44;95462.00;5113757;27;20121;-80
2023/06/21 08:29:02;;;;;;;31.45;15.13;;;;;;;23.29;55.20;95482.09;5122057;27;20050;-80
2023/06/21 08:31:28;;;;;;;20.30;14.10;;;;;;;23.40;54.96;95493.22;5100104;27;20039;-80
2023/06/21 08:33:53;;;;;;;24.17;14.90;;;;;;;23.43;55.40;95496.00;5100577;27;20107;-80
2023/06/21 08:36:19;;;;;;;27.83;15.10;;;;;;;23.51;56.15;95505.13;5091888;27;20032;-80
2023/06/21 08:38:45;;;;;;;23.90;14.15;;;;;;;23.56;55.49;95493.28;5096934;27;20462;-80
2023/06/21 08:41:11;;;;;;;26.67;14.43;;;;;;;22.75;55.17;95372.84;5090106;27;20417;-80
2023/06/21 08:43:37;;;;;;;26.85;15.20;;;;;;;23.20;54.84;95419.25;5076420;28;20053;-80
2023/06/21 08:46:05;;;;;;;20.98;13.75;;;;;;;23.78;54.94;95485.31;5094166;27;20035;-80
2023/06/21 08:48:31;;;;;;;26.67;14.18;;;;;;;23.56;54.84;95439.13;5100049;27;20032;-80
2023/06/21 08:50:58;;;;;;;26.10;14.63;;;;;;;23.99;54.13;95493.16;5088609;27;20508;-81
2023/06/21 08:53:56;;;;;;;30.90;14.10;;;;;;;24.05;53.54;95485.56;5059161;28;20032;-81
2023/06/21 08:56:23;;;;;;;26.25;13.95;;;;;;;24.13;54.29;95485.38;5081201;27;20027;-80
2023/06/21 08:59:12;;;;;;;18.85;14.10;;;;;;;23.92;55.54;95446.97;5089107;27;20134;-80
2023/06/21 09:02:07;;;;;;;22.75;13.50;;;;;;;24.34;55.94;95485.09;5088289;28;20023;-80
2023/06/21 09:04:41;;;;;;;22.83;13.35;;;;;;;24.34;55.75;95460.69;5051365;28;20070;-81
2023/06/21 09:07:07;;;;;;;23.67;13.05;;;;;;;24.26;55.11;95433.81;5113950;27;20035;-80
2023/06/21 09:09:33;;;;;;;18.50;13.48;;;;;;;24.17;53.13;95420.44;5108470;27;20059;-80
2023/06/21 09:11:58;;;;;;;23.30;13.52;;;;;;;24.05;53.13;95407.00;5110046;27;20100;-80
2023/06/21 09:14:31;;;;;;;14.25;11.40;;;;;;;24.45;50.55;95486.13;5111044;27;20053;-80
2023/06/21 09:16:59;;;;;;;15.77;11.55;;;;;;;24.35;50.13;95470.41;5094112;27;20031;-81
2023/06/21 09:19:25;;;;;;;19.95;11.02;;;;;;;24.51;49.72;95460.31;5099096;27;20505;-81
2023/06/21 09:21:51;;;;;;;16.13;10.75;;;;;;;24.54;49.20;95461.53;5092740;28;20031;-80
2023/06/21 09:24:17;;;;;;;18.90;10.75;;;;;;;24.64;49.44;95463.69;5106315;27;20027;-81
2023/06/21 09:26:42;;;;;;;16.98;10.98;;;;;;;24.77;51.09;95465.09;5112625;27;20039;-81
2023/06/21 09:29:09;;;;;;;17.27;11.52;;;;;;;24.77;49.37;95459.69;5091277;27;20035;-81
2023/06/21 09:31:34;;;;;;;21.67;10.82;;;;;;;24.79;49.00;95479.09;5102071;27;20330;-80
2023/06/21 09:34:00;;;;;;;21.02;12.75;;;;;;;24.71;51.12;95463.03;5081147;27;20031;-80
2023/06/21 09:36:25;;;;;;;14.75;10.80;;;;;;;24.79;49.43;95462.03;5081933;27;20135;-78
2023/06/21 09:38:51;;;;;;;16.73;11.15;;;;;;;24.25;49.60;95370.69;5082058;27;20053;-79
2023/06/21 09:41:18;;;;;;;19.98;11.98;;;;;;;24.92;48.58;95475.13;5111228;27;20088;-79
2023/06/21 09:43:44;;;;;;;17.85;10.90;;;;;;;25.06;47.13;95477.34;5096802;27;20113;-79
2023/06/21 09:46:12;;;;;;;15.07;10.48;;;;;;;25.46;45.61;95433.47;5099399;27;20669;-79
2023/06/21 09:48:39;;;;;;;13.52;9.20;;;;;;;26.74;42.90;95460.66;5101248;27;20050;-79
2023/06/21 09:51:06;;;;;;;15.10;8.85;;;;;;;27.82;41.33;95464.19;5095297;27;20031;-79
2023/06/21 09:53:32;;;;;;;13.45;8.98;;;;;;;28.99;39.12;95464.94;5130241;27;20042;-78
2023/06/21 09:56:00;;;;;;;13.00;8.45;;;;;;;29.57;37.10;95442.09;5094946;27;20440;-78
2023/06/21 09:58:25;;;;;;;10.85;8.35;;;;;;;29.80;35.23;95417.91;5101836;27;20031;-78
2023/06/21 10:00:51;;;;;;;13.48;8.07;;;;;;;31.16;33.60;95462.97;5113068;27;20027;-79
2023/06/21 10:03:21;;;;;;;10.90;8.25;;;;;;;31.61;32.65;95397.34;5099177;27;20151;-79
2023/06/21 10:05:54;;;;;;;13.85;8.63;;;;;;;32.46;31.83;95454.22;5117289;27;20031;-79
2023/06/21 10:08:28;;;;;;;16.75;9.20;;;;;;;33.32;31.66;95469.34;5101377;27;20478;-79
2023/06/21 10:10:54;;;;;;;16.08;9.07;;;;;;;33.54;30.42;95467.09;5102872;27;20513;-79
2023/06/21 10:13:33;;;;;;;14.25;7.68;;;;;;;33.46;29.52;95476.63;5105687;27;20041;-79
2023/06/21 10:16:01;;;;;;;7.93;6.78;;;;;;;33.59;28.51;95469.34;5112259;27;20163;-79
2023/06/21 10:18:29;;;;;;;12.45;7.60;;;;;;;33.81;28.40;95455.31;5122498;27;20776;-79
2023/06/21 10:21:07;;;;;;;10.75;7.97;;;;;;;34.31;28.19;95463.56;5103631;27;20027;-80
2023/06/21 10:23:36;;;;;;;9.70;7.43;;;;;;;34.58;27.37;95455.19;5122458;27;20031;-79
2023/06/21 10:26:05;;;;;;;8.63;7.13;;;;;;;34.85;27.03;95458.66;5105513;27;20031;-80
2023/06/21 10:28:36;;;;;;;13.13;7.32;;;;;;;34.41;26.69;95367.00;5111338;27;20027;-79
2023/06/21 10:31:03;;;;;;;11.52;7.53;;;;;;;34.74;28.06;95431.31;5121236;27;20035;-79
2023/06/21 10:33:30;;;;;;;10.57;7.38;;;;;;;34.71;27.19;95461.66;5120930;27;20160;-79
2023/06/21 10:35:56;;;;;;;10.40;7.20;;;;;;;34.15;27.39;95449.66;5121633;27;20419;-79
2023/06/21 10:38:39;;;;;;;13.13;7.88;;;;;;;34.56;27.36;95433.59;5101445;27;20027;-79
2023/06/21 10:41:05;;;;;;;10.85;7.88;;;;;;;34.61;27.29;95460.66;5109243;27;20039;-79
2023/06/21 10:43:31;;;;;;;12.60;8.38;;;;;;;34.79;27.17;95455.59;5109315;27;21087;-79
2023/06/21 10:45:58;;;;;;;9.55;7.63;;;;;;;35.08;27.62;95464.09;5112187;27;20031;-79
2023/06/21 10:48:25;;;;;;;15.02;8.27;;;;;;;35.07;27.05;95439.69;5095636;27;20039;-80
2023/06/21 10:50:52;;;;;;;12.10;7.50;;;;;;;35.39;27.84;95467.41;5112865;27;20038;-79
2023/06/21 10:53:18;;;;;;;8.18;6.80;;;;;;;35.27;26.91;95468.03;5108969;27;20060;-79
2023/06/21 10:55:46;;;;;;;12.18;7.93;;;;;;;35.04;26.87;95441.31;5110713;27;20046;-80
2023/06/21 10:58:13;;;;;;;10.00;7.68;;;;;;;34.08;27.56;95464.31;5115431;27;20422;-79
2023/06/21 11:00:44;;;;;;;11.73;7.72;;;;;;;34.00;27.35;95460.91;5117730;27;20019;-79
2023/06/21 11:03:12;;;;;;;;;;;;;;;33.90;27.42;95461.84;5110971;27;20028;-79
2023/06/21 11:05:39;;;;;;;9.23;7.50;;;;;;;33.91;27.94;95454.38;5093517;27;20009;-79
2023/06/21 11:08:06;;;;;;;9.68;7.28;;;;;;;33.91;27.78;95452.41;5108617;27;20047;-79
2023/06/21 11:10:50;;;;;;;11.30;7.70;;;;;;;33.49;28.89;95455.78;5112194;27;20432;-79
2023/06/21 11:13:32;;;;;;;14.15;7.93;;;;;;;33.64;28.61;95449.63;5118961;27;20231;-79
2023/06/21 11:16:17;;;;;;;12.25;8.20;;;;;;;33.85;28.18;95429.31;5105873;27;20746;-80
2023/06/21 11:18:49;;;;;;;12.43;7.53;;;;;;;34.18;28.50;95426.81;5107618;27;20038;-80
2023/06/21 11:21:14;;;;;;;10.57;7.35;;;;;;;34.44;27.28;95436.97;5123362;27;20095;-80